Time;durP1;ratioP1;P1;durP2;ratioP2;P2;SDS_P1;SDS_P2;PMS_P1;PMS_P2;Temp;Humidity;BMP_temperature;BMP_pressure;BME280_temperature;BME280_humidity;BME280_pressure;Samples;Min_cycle;Max_cycle;Signal;HPM_P1;HPM_P2
2022/05/31 00:02:20;;;;;;;3.95;2.20;;;;;;;12.85;69.67;95299.47;5075964;28;20087;-73
2022/05/31 00:04:46;;;;;;;2.33;2.00;;;;;;;12.87;68.92;95293.00;5100336;28;20031;-73
2022/05/31 00:07:11;;;;;;;3.30;2.05;;;;;;;12.88;68.92;95293.84;5097112;28;20495;-73
2022/05/31 00:09:36;;;;;;;4.78;2.30;;;;;;;12.80;69.45;95294.66;5110065;28;20028;-72
2022/05/31 00:12:02;;;;;;;5.38;1.80;;;;;;;12.82;69.93;95292.69;5079384;28;20035;-73
2022/05/31 00:14:28;;;;;;;2.45;2.25;;;;;;;12.81;70.53;95298.13;5096633;28;20054;-74
2022/05/31 00:16:53;;;;;;;2.33;2.00;;;;;;;12.83;70.51;95296.16;5103780;27;20115;-74
2022/05/31 00:19:19;;;;;;;2.65;2.05;;;;;;;12.79;71.93;95292.16;5102661;27;20020;-73
2022/05/31 00:21:59;;;;;;;2.20;2.10;;;;;;;12.74;70.88;95290.84;5099536;27;20114;-73
2022/05/31 00:24:24;;;;;;;2.10;2.00;;;;;;;12.77;70.01;95288.88;5104015;27;20498;-74
2022/05/31 00:26:50;;;;;;;3.03;2.22;;;;;;;12.78;70.65;95296.66;5104384;27;20031;-74
2022/05/31 00:29:16;;;;;;;6.75;2.00;;;;;;;12.73;71.33;95293.69;5104115;27;20035;-73
2022/05/31 00:31:44;;;;;;;1.73;1.63;;;;;;;12.75;70.92;95289.88;5108386;27;20031;-73
2022/05/31 00:34:11;;;;;;;4.68;2.25;;;;;;;12.79;70.42;95293.00;5105020;27;20030;-73
2022/05/31 00:36:39;;;;;;;2.45;2.20;;;;;;;12.76;70.43;95296.00;5110185;27;20032;-74
2022/05/31 00:39:05;;;;;;;3.28;2.10;;;;;;;12.70;71.29;95288.69;5103277;27;20036;-74
2022/05/31 00:41:33;;;;;;;2.10;1.90;;;;;;;12.67;70.91;95286.41;5102381;27;20093;-74
2022/05/31 00:44:19;;;;;;;2.20;2.00;;;;;;;12.65;71.58;95299.78;5089594;28;20084;-74
2022/05/31 00:46:55;;;;;;;1.92;1.83;;;;;;;12.57;71.52;95300.59;5103453;27;20027;-73
2022/05/31 00:49:58;;;;;;;2.33;2.13;;;;;;;12.53;71.28;95312.47;5102180;27;20035;-73
2022/05/31 00:52:29;;;;;;;2.10;2.00;;;;;;;12.53;70.83;95317.75;5095176;27;20039;-73
2022/05/31 00:55:03;;;;;;;2.47;2.28;;;;;;;12.48;72.65;95317.41;5107387;27;20518;-73
2022/05/31 00:57:32;;;;;;;2.50;2.20;;;;;;;12.44;72.15;95322.19;5101134;27;20066;-73
2022/05/31 01:00:03;;;;;;;3.55;2.20;;;;;;;12.43;72.66;95332.91;5103710;27;20034;-73
2022/05/31 01:02:29;;;;;;;2.70;2.35;;;;;;;12.38;72.02;95332.59;5098685;27;20024;-74
2022/05/31 01:05:01;;;;;;;2.30;2.10;;;;;;;12.37;72.33;95337.03;5102029;28;20026;-73
2022/05/31 01:07:27;;;;;;;2.00;1.90;;;;;;;12.32;72.65;95337.53;5100054;27;20028;-73
2022/05/31 01:09:53;;;;;;;2.95;2.13;;;;;;;12.25;72.76;95341.78;5108068;27;20016;-73
2022/05/31 01:12:21;;;;;;;2.30;2.20;;;;;;;12.25;73.09;95339.13;5098806;27;20024;-73
2022/05/31 01:14:46;;;;;;;3.05;2.25;;;;;;;12.28;73.05;95340.63;5102958;27;20035;-74
2022/05/31 01:17:20;;;;;;;2.47;2.10;;;;;;;12.23;73.08;95341.13;5100984;27;20020;-73
2022/05/31 01:19:56;;;;;;;3.78;2.22;;;;;;;12.22;74.25;95339.47;5095820;27;20024;-73
2022/05/31 01:22:40;;;;;;;2.10;1.95;;;;;;;12.18;74.23;95353.97;5104800;27;20036;-74
2022/05/31 01:25:17;;;;;;;3.75;2.42;;;;;;;12.16;74.43;95340.13;5097396;27;20020;-74
2022/05/31 01:27:51;;;;;;;2.50;2.30;;;;;;;12.10;75.88;95338.94;5101367;27;20495;-73
2022/05/31 01:30:18;;;;;;;2.65;2.45;;;;;;;12.13;74.56;95333.34;5105971;27;20051;-73
2022/05/31 01:32:54;;;;;;;3.08;2.40;;;;;;;12.13;74.61;95337.81;5099068;27;20019;-73
2022/05/31 01:35:27;;;;;;;2.42;2.33;;;;;;;12.07;75.26;95333.16;5099718;27;20382;-73
2022/05/31 01:38:10;;;;;;;2.90;2.70;;;;;;;12.07;74.38;95331.34;5106422;27;20049;-73
2022/05/31 01:40:44;;;;;;;3.95;2.95;;;;;;;12.06;74.89;95331.53;5106645;27;20028;-73
2022/05/31 01:43:09;;;;;;;2.40;2.30;;;;;;;11.98;75.13;95324.38;5106551;27;20114;-72
2022/05/31 01:46:06;;;;;;;2.60;2.40;;;;;;;11.98;75.23;95333.09;5102288;27;20454;-73
2022/05/31 01:48:35;;;;;;;2.95;2.72;;;;;;;12.00;76.59;95340.88;5099092;27;20043;-73
2022/05/31 01:51:01;;;;;;;3.42;3.08;;;;;;;12.01;76.04;95335.44;5108194;27;20019;-73
2022/05/31 01:53:27;;;;;;;5.20;2.90;;;;;;;12.05;75.28;95330.69;5103778;27;20016;-73
2022/05/31 01:55:53;;;;;;;3.40;2.90;;;;;;;12.06;75.88;95344.72;5104053;27;20036;-73
2022/05/31 01:58:25;;;;;;;2.67;2.47;;;;;;;12.07;75.11;95338.44;5104890;27;20108;-73
2022/05/31 02:00:52;;;;;;;2.88;2.55;;;;;;;12.08;75.01;95342.75;5108043;27;20074;-73
2022/05/31 02:03:19;;;;;;;2.60;2.40;;;;;;;12.16;74.04;95348.03;5102997;27;20028;-73
2022/05/31 02:05:47;;;;;;;2.50;2.25;;;;;;;12.19;73.25;95345.06;5101804;27;20028;-73
2022/05/31 02:08:14;;;;;;;2.20;2.10;;;;;;;12.22;73.99;95350.03;5098199;28;20023;-73
2022/05/31 02:10:43;;;;;;;2.58;2.30;;;;;;;12.19;74.80;95345.06;5104707;27;20577;-73
2022/05/31 02:13:08;;;;;;;2.83;2.63;;;;;;;12.17;74.27;95341.75;5108601;27;20050;-73
2022/05/31 02:15:34;;;;;;;6.63;2.72;;;;;;;12.18;74.57;95351.34;5106182;27;20055;-73
2022/05/31 02:18:00;;;;;;;3.92;2.50;;;;;;;12.22;75.08;95354.50;5096980;27;20115;-73
2022/05/31 02:20:26;;;;;;;2.38;2.20;;;;;;;12.22;74.53;95349.22;5103222;27;20032;-74
2022/05/31 02:22:51;;;;;;;4.78;2.25;;;;;;;12.22;74.90;95351.84;5097011;27;20024;-74
2022/05/31 02:25:17;;;;;;;2.28;2.10;;;;;;;12.28;74.92;95356.47;5099419;27;20018;-73
2022/05/31 02:27:43;;;;;;;4.13;2.17;;;;;;;12.26;74.90;95358.44;5106110;27;20309;-73
2022/05/31 02:30:09;;;;;;;2.00;1.90;;;;;;;12.34;74.57;95360.28;5105383;27;20098;-73
2022/05/31 02:32:34;;;;;;;4.25;2.15;;;;;;;12.32;74.55;95363.91;5107825;27;20050;-73
2022/05/31 02:35:01;;;;;;;2.22;2.03;;;;;;;12.29;74.57;95368.69;5101756;27;20461;-73
2022/05/31 02:37:26;;;;;;;4.47;2.45;;;;;;;12.25;74.89;95362.88;5099521;27;20023;-73
2022/05/31 02:39:52;;;;;;;2.85;2.50;;;;;;;12.26;74.48;95369.00;5106659;27;20869;-74
2022/05/31 02:42:17;;;;;;;2.53;2.20;;;;;;;12.27;74.87;95370.66;5108575;27;20023;-73
2022/05/31 02:44:43;;;;;;;4.40;2.35;;;;;;;12.24;74.87;95369.16;5106254;27;20088;-73
2022/05/31 02:47:09;;;;;;;2.70;2.50;;;;;;;12.31;74.35;95372.81;5107922;27;20030;-74
2022/05/31 02:49:37;;;;;;;2.72;2.28;;;;;;;12.33;75.11;95388.50;5104311;27;20039;-74
2022/05/31 02:52:03;;;;;;;2.50;2.30;;;;;;;12.40;74.10;95388.69;5103801;27;20012;-73
2022/05/31 02:54:28;;;;;;;2.75;2.50;;;;;;;12.41;74.59;95385.88;5097026;27;20081;-74
2022/05/31 02:56:54;;;;;;;2.60;2.40;;;;;;;12.42;75.84;95392.81;5103925;27;20027;-73
2022/05/31 02:59:19;;;;;;;2.92;2.25;;;;;;;12.66;73.39;95400.94;5097452;27;20379;-74
2022/05/31 03:01:45;;;;;;;2.83;2.40;;;;;;;12.65;73.15;95400.13;5102243;27;20023;-74
2022/05/31 03:04:12;;;;;;;3.95;2.42;;;;;;;12.57;73.57;95397.47;5112951;27;20026;-74
2022/05/31 03:06:38;;;;;;;2.60;2.40;;;;;;;12.52;74.15;95399.75;5103730;27;20474;-74
2022/05/31 03:09:05;;;;;;;2.30;2.20;;;;;;;12.50;74.97;95394.66;5100097;27;20075;-74
2022/05/31 03:11:33;;;;;;;2.78;2.15;;;;;;;12.51;75.79;95406.88;5106001;27;20024;-74
2022/05/31 03:14:07;;;;;;;3.72;2.80;;;;;;;12.51;74.81;95417.44;5084327;28;20038;-74
2022/05/31 03:16:35;;;;;;;2.50;2.40;;;;;;;12.54;75.67;95409.19;5107488;27;20028;-74
2022/05/31 03:19:04;;;;;;;4.13;2.83;;;;;;;12.56;74.18;95394.00;5100675;27;20035;-73
2022/05/31 03:21:40;;;;;;;3.15;2.80;;;;;;;12.65;73.71;95396.66;5103541;27;20024;-74
2022/05/31 03:24:11;;;;;;;;;;;;;;;12.65;74.16;95404.56;5105111;27;20110;-74
2022/05/31 03:26:40;;;;;;;3.05;2.65;;;;;;;12.69;73.67;95397.97;5105718;27;20295;-74
2022/05/31 03:29:06;;;;;;;6.20;2.67;;;;;;;12.67;74.64;95392.88;5106546;27;20085;-74
2022/05/31 03:31:31;;;;;;;5.35;2.92;;;;;;;12.67;73.69;95392.88;5100706;27;20040;-74
2022/05/31 03:33:58;;;;;;;3.30;2.35;;;;;;;12.71;73.73;95406.56;5083103;28;20030;-74
2022/05/31 03:36:23;;;;;;;4.53;2.15;;;;;;;12.69;73.78;95397.97;5107534;27;20499;-74
2022/05/31 03:38:49;;;;;;;3.50;2.88;;;;;;;12.71;73.63;95388.06;5105119;27;20020;-74
2022/05/31 03:41:14;;;;;;;2.55;2.40;;;;;;;12.69;74.30;95398.81;5106151;28;20070;-74
2022/05/31 03:43:39;;;;;;;2.53;2.30;;;;;;;12.70;73.82;95389.91;5102204;27;20087;-74
2022/05/31 03:46:11;;;;;;;4.80;2.85;;;;;;;12.84;72.95;95396.38;5097736;28;20058;-74
2022/05/31 03:48:36;;;;;;;3.42;2.25;;;;;;;12.86;72.94;95378.53;5102045;28;20028;-73
2022/05/31 03:51:06;;;;;;;7.78;2.60;;;;;;;12.88;72.50;95394.22;5102635;27;20432;-74
2022/05/31 03:53:32;;;;;;;3.30;2.60;;;;;;;12.92;72.17;95390.25;5100036;27;20035;-74
2022/05/31 03:56:01;;;;;;;2.92;2.65;;;;;;;12.90;72.90;95398.34;5098485;27;20048;-74
2022/05/31 03:58:26;;;;;;;3.28;2.42;;;;;;;12.92;73.05;95405.28;5108775;27;20043;-74
2022/05/31 04:00:52;;;;;;;2.08;1.95;;;;;;;12.90;73.64;95408.91;5088335;28;20032;-74
2022/05/31 04:03:18;;;;;;;3.47;2.75;;;;;;;12.94;73.57;95413.91;5099524;27;20027;-74
2022/05/31 04:05:44;;;;;;;4.68;2.25;;;;;;;12.90;73.89;95414.19;5110381;27;20513;-73
2022/05/31 04:08:12;;;;;;;4.40;2.85;;;;;;;12.90;73.55;95414.19;5105282;27;20020;-73
2022/05/31 04:10:38;;;;;;;3.17;2.88;;;;;;;12.95;73.17;95415.53;5107193;27;20023;-74
2022/05/31 04:13:05;;;;;;;3.28;2.67;;;;;;;13.00;73.17;95414.03;5104340;27;20023;-72
2022/05/31 04:15:30;;;;;;;3.42;3.00;;;;;;;12.96;72.84;95422.47;5110796;27;20035;-73
2022/05/31 04:17:55;;;;;;;6.00;3.13;;;;;;;12.82;74.02;95427.41;5110087;27;20016;-74
2022/05/31 04:20:21;;;;;;;2.85;2.50;;;;;;;12.73;74.28;95423.91;5089619;28;20035;-73
2022/05/31 04:22:47;;;;;;;3.60;2.38;;;;;;;12.68;73.72;95428.88;5104060;27;20471;-73
2022/05/31 04:25:12;;;;;;;3.67;2.05;;;;;;;12.69;73.58;95424.38;5109745;27;20074;-74
2022/05/31 04:27:38;;;;;;;3.22;2.40;;;;;;;12.70;73.96;95416.31;5106078;27;20490;-74
2022/05/31 04:30:04;;;;;;;3.65;2.50;;;;;;;12.78;73.63;95423.44;5108168;27;20031;-73
2022/05/31 04:32:29;;;;;;;3.35;2.58;;;;;;;12.75;73.82;95421.13;5106899;27;20023;-74
2022/05/31 04:34:55;;;;;;;4.95;2.22;;;;;;;12.72;73.96;95430.19;5109933;27;20024;-73
2022/05/31 04:37:20;;;;;;;3.25;2.28;;;;;;;12.73;74.08;95429.19;5108325;27;20026;-74
2022/05/31 04:39:46;;;;;;;6.75;2.10;;;;;;;12.70;74.73;95421.59;5095434;27;20685;-74
2022/05/31 04:42:11;;;;;;;3.08;2.20;;;;;;;12.68;74.84;95425.38;5105728;27;20020;-74
2022/05/31 04:44:37;;;;;;;2.33;2.03;;;;;;;12.76;73.74;95428.06;5101076;27;20111;-73
2022/05/31 04:47:03;;;;;;;4.63;2.20;;;;;;;12.83;73.11;95429.06;5106167;27;20044;-74
2022/05/31 04:49:29;;;;;;;2.22;2.03;;;;;;;12.82;72.89;95426.56;5110955;27;20024;-74
2022/05/31 04:51:55;;;;;;;2.47;2.28;;;;;;;12.83;72.80;95425.59;5104346;27;20020;-75
2022/05/31 04:54:23;;;;;;;7.45;2.83;;;;;;;12.87;73.35;95414.53;5108661;27;20064;-74
2022/05/31 04:56:48;;;;;;;3.35;2.60;;;;;;;12.83;74.20;95415.03;5103421;27;20055;-74
2022/05/31 04:59:14;;;;;;;2.30;2.20;;;;;;;12.84;74.36;95417.50;5110948;27;20603;-74
2022/05/31 05:01:39;;;;;;;8.98;3.30;;;;;;;12.88;74.70;95410.88;5107162;27;20470;-73
2022/05/31 05:04:05;;;;;;;2.88;2.60;;;;;;;12.89;75.51;95409.91;5101362;27;20103;-74
2022/05/31 05:06:31;;;;;;;5.40;2.33;;;;;;;12.84;75.32;95416.69;5101018;27;20036;-75
2022/05/31 05:08:56;;;;;;;1.98;1.88;;;;;;;12.89;74.36;95427.59;5101823;27;20511;-72
2022/05/31 05:11:23;;;;;;;6.75;5.43;;;;;;;13.11;72.72;95431.41;5110458;27;20039;-74
2022/05/31 05:13:50;;;;;;;3.63;3.33;;;;;;;13.29;71.30;95433.06;5113705;27;20066;-75
2022/05/31 05:16:17;;;;;;;3.30;2.60;;;;;;;13.37;70.83;95427.75;5107106;27;20020;-74
2022/05/31 05:18:43;;;;;;;7.40;2.58;;;;;;;13.25;72.16;95439.66;5101859;27;20546;-74
2022/05/31 05:21:12;;;;;;;3.33;2.47;;;;;;;13.27;71.96;95448.25;5108319;27;20032;-74
2022/05/31 05:23:37;;;;;;;3.53;2.80;;;;;;;13.21;72.75;95446.28;5101176;27;20139;-74
2022/05/31 05:26:04;;;;;;;8.57;2.40;;;;;;;13.40;71.74;95439.84;5096242;27;20111;-74
2022/05/31 05:31:30;;;;;;;3.67;2.38;;;;;;;13.22;72.77;95466.44;5105414;27;20042;-74
2022/05/31 05:33:57;;;;;;;5.22;2.83;;;;;;;13.21;73.61;95472.72;5103839;27;20410;-75
2022/05/31 05:36:24;;;;;;;2.63;2.42;;;;;;;13.24;73.30;95475.84;5104896;27;20028;-76
2022/05/31 05:38:49;;;;;;;3.85;2.30;;;;;;;13.30;73.69;95475.22;5098569;27;20107;-76
2022/05/31 05:41:16;;;;;;;3.63;2.45;;;;;;;13.44;72.74;95484.31;5099955;27;20127;-76
2022/05/31 05:43:41;;;;;;;3.85;1.98;;;;;;;13.50;71.09;95477.56;5096760;27;20072;-76
2022/05/31 05:46:23;;;;;;;4.60;2.13;;;;;;;13.69;68.00;95471.09;5103240;27;20028;-75
2022/05/31 05:48:49;;;;;;;4.47;2.25;;;;;;;13.95;65.97;95485.94;5105584;27;20085;-75
2022/05/31 05:51:27;;;;;;;2.50;2.08;;;;;;;14.09;64.91;95488.91;5104521;27;20169;-73
2022/05/31 05:53:53;;;;;;;1.90;1.80;;;;;;;14.18;65.06;95495.81;5104430;27;20023;-75
2022/05/31 05:56:20;;;;;;;4.20;2.00;;;;;;;14.20;65.00;95509.72;5099128;27;20040;-75
2022/05/31 05:58:46;;;;;;;3.28;2.00;;;;;;;14.30;65.78;95513.00;5107023;27;20022;-76
2022/05/31 06:01:22;;;;;;;2.75;2.50;;;;;;;14.45;65.82;95526.38;5098808;27;20028;-74
2022/05/31 06:04:01;;;;;;;2.03;1.85;;;;;;;14.54;64.58;95532.47;5082387;28;20024;-75
2022/05/31 06:06:31;;;;;;;2.33;1.90;;;;;;;14.51;66.84;95554.00;5100942;27;20031;-68
2022/05/31 06:09:05;;;;;;;3.58;1.77;;;;;;;14.64;66.13;95564.06;5096646;27;20812;-70
2022/05/31 06:11:35;;;;;;;1.58;1.48;;;;;;;14.69;65.40;95576.78;5100452;27;20027;-74
2022/05/31 06:14:16;;;;;;;4.32;1.67;;;;;;;14.47;68.71;95590.59;5098251;28;20039;-72
2022/05/31 06:16:47;;;;;;;3.40;2.08;;;;;;;14.25;70.90;95596.59;5110284;27;20023;-73
2022/05/31 06:19:18;;;;;;;3.17;1.70;;;;;;;14.07;71.77;95610.00;5095300;27;20059;-74
2022/05/31 06:21:45;;;;;;;4.55;2.35;;;;;;;13.69;74.75;95621.88;5099829;27;20032;-72
2022/05/31 06:24:11;;;;;;;4.85;2.00;;;;;;;13.85;74.10;95636.13;5103964;27;20027;-72
2022/05/31 06:26:37;;;;;;;2.00;1.88;;;;;;;13.89;75.01;95634.81;5099482;27;20024;-74
2022/05/31 06:29:03;;;;;;;4.18;2.13;;;;;;;13.56;77.31;95643.50;5104234;27;20376;-76
2022/05/31 06:31:29;;;;;;;3.35;2.08;;;;;;;13.33;80.15;95652.00;5104095;27;20027;-77
2022/05/31 06:33:55;;;;;;;4.50;2.33;;;;;;;13.10;85.29;95650.94;5095507;27;20030;-77
2022/05/31 06:36:20;;;;;;;4.65;2.40;;;;;;;13.00;87.56;95665.09;5095433;27;20434;-77
2022/05/31 06:38:46;;;;;;;3.05;2.22;;;;;;;12.83;90.58;95661.53;5096608;27;20035;-75
2022/05/31 06:41:12;;;;;;;5.82;2.10;;;;;;;12.74;92.48;95662.47;5075464;28;20028;-74
2022/05/31 06:43:38;;;;;;;2.20;1.90;;;;;;;12.73;91.45;95676.69;5097049;27;20031;-75
2022/05/31 06:46:08;;;;;;;2.08;1.98;;;;;;;12.69;91.76;95670.03;5096550;27;20028;-72
2022/05/31 06:48:33;;;;;;;4.00;2.22;;;;;;;12.73;90.62;95680.13;5098665;27;20032;-72
2022/05/31 06:51:03;;;;;;;2.05;1.90;;;;;;;13.06;84.47;95687.41;5093327;28;20471;-71
2022/05/31 06:56:54;;;;;;;3.13;2.10;;;;;;;12.77;90.18;95699.16;5096200;27;20136;-71
2022/05/31 06:59:02;;;;;;;2.55;2.35;;;;;;;12.68;93.86;95694.78;5093662;27;20036;-71
2022/05/31 07:01:37;;;;;;;5.35;2.63;;;;;;;12.68;92.86;95697.41;5096408;27;20024;-70
2022/05/31 07:04:04;;;;;;;5.95;2.97;;;;;;;12.65;97.39;95697.72;5105579;27;20097;-70
2022/05/31 07:06:32;;;;;;;4.45;2.50;;;;;;;12.64;97.76;95701.38;5099329;27;20119;-70
2022/05/31 07:08:57;;;;;;;4.38;3.55;;;;;;;12.73;95.48;95705.72;5103971;27;20478;-69
2022/05/31 07:11:23;;;;;;;7.22;4.97;;;;;;;12.87;95.92;95715.72;5099113;27;20042;-70
2022/05/31 07:13:49;;;;;;;18.63;17.10;;;;;;;12.96;93.15;95713.13;5103917;27;20053;-71
2022/05/31 07:16:14;;;;;;;21.65;19.75;;;;;;;12.83;95.67;95714.38;5109585;27;20055;-70
2022/05/31 07:18:40;;;;;;;18.33;16.63;;;;;;;12.73;100.00;95718.94;5103144;27;20035;-70
2022/05/31 07:21:05;;;;;;;16.33;14.70;;;;;;;12.74;98.30;95720.59;5096502;27;20032;-70
2022/05/31 07:23:31;;;;;;;11.45;10.35;;;;;;;12.74;100.00;95713.50;5104287;27;20015;-69
2022/05/31 07:25:58;;;;;;;7.57;6.80;;;;;;;12.77;100.00;95712.34;5082375;28;20405;-60
2022/05/31 07:28:26;;;;;;;5.40;3.30;;;;;;;12.81;99.33;95711.06;5092130;27;20715;-62
2022/05/31 07:30:52;;;;;;;3.38;3.03;;;;;;;12.87;100.00;95707.78;5090499;27;20070;-61
2022/05/31 07:33:17;;;;;;;2.83;2.47;;;;;;;12.91;100.00;95697.75;5092150;28;20503;-61
2022/05/31 07:35:42;;;;;;;3.28;2.97;;;;;;;12.96;99.89;95698.09;5097895;27;20034;-62
2022/05/31 07:38:09;;;;;;;4.30;3.92;;;;;;;13.01;98.90;95697.63;5096799;27;20020;-61
2022/05/31 07:40:35;;;;;;;4.30;3.50;;;;;;;13.12;99.15;95681.50;5099652;28;20482;-61
2022/05/31 07:43:01;;;;;;;3.88;2.85;;;;;;;13.08;99.88;95680.16;5095316;27;20039;-61
2022/05/31 07:45:27;;;;;;;3.45;3.15;;;;;;;13.06;99.76;95678.66;5095179;28;20505;-61
2022/05/31 07:47:52;;;;;;;3.00;2.28;;;;;;;12.94;100.00;95676.28;5094372;28;20099;-60
2022/05/31 07:50:19;;;;;;;3.13;2.55;;;;;;;12.93;100.00;95673.78;5094108;28;20107;-61
2022/05/31 07:52:44;;;;;;;8.32;2.60;;;;;;;12.87;100.00;95657.59;5093429;28;20134;-61
2022/05/31 07:55:10;;;;;;;7.70;2.33;;;;;;;12.90;100.00;95654.63;5091097;28;20131;-61
2022/05/31 08:00:34;;;;;;;2.70;2.35;;;;;;;12.97;100.00;95651.38;5079016;28;20032;-61
2022/05/31 08:02:59;;;;;;;2.75;2.47;;;;;;;13.22;99.96;95646.19;5093075;28;20024;-60
2022/05/31 08:05:24;;;;;;;2.95;2.40;;;;;;;13.27;97.74;95647.38;5096815;28;20030;-61
2022/05/31 08:07:50;;;;;;;3.22;3.00;;;;;;;13.28;97.39;95643.75;5097209;28;20047;-61
2022/05/31 08:10:17;;;;;;;4.70;3.47;;;;;;;13.14;98.02;95642.50;5103347;28;20479;-61
2022/05/31 08:12:43;;;;;;;4.75;4.22;;;;;;;13.13;98.01;95635.56;5092783;28;20498;-61
2022/05/31 08:15:09;;;;;;;3.80;3.50;;;;;;;13.08;98.61;95637.88;5092418;28;20024;-61
2022/05/31 08:17:34;;;;;;;7.65;4.28;;;;;;;13.11;98.98;95642.84;5093017;28;20008;-61
2022/05/31 08:20:00;;;;;;;4.63;4.22;;;;;;;13.09;99.42;95646.63;5091093;28;20054;-61
2022/05/31 08:22:25;;;;;;;7.47;4.65;;;;;;;12.97;100.00;95644.25;5094824;28;20118;-61
2022/05/31 08:24:50;;;;;;;5.97;4.53;;;;;;;12.85;100.00;95646.34;5092955;28;20375;-61
2022/05/31 08:27:16;;;;;;;7.90;5.18;;;;;;;12.89;100.00;95633.66;5093613;28;20059;-61
2022/05/31 08:29:42;;;;;;;5.38;4.90;;;;;;;13.04;100.00;95632.09;5097012;28;20046;-61
2022/05/31 08:32:08;;;;;;;5.53;5.03;;;;;;;13.26;100.00;95632.50;5091747;28;20016;-61
2022/05/31 08:34:33;;;;;;;4.95;4.53;;;;;;;13.37;100.00;95628.72;5095513;28;20107;-61
2022/05/31 08:36:59;;;;;;;10.95;4.68;;;;;;;13.52;100.00;95625.47;5096399;27;20115;-61
2022/05/31 08:39:24;;;;;;;5.13;4.63;;;;;;;13.70;100.00;95628.81;5098633;27;20035;-61
2022/05/31 08:41:56;;;;;;;4.20;3.53;;;;;;;14.03;100.00;95638.63;5079655;28;20020;-61
2022/05/31 08:44:27;;;;;;;5.35;3.33;;;;;;;14.25;98.31;95645.06;5098346;27;20069;-61
2022/05/31 08:47:04;;;;;;;8.05;4.53;;;;;;;14.55;97.58;95644.53;5096284;27;20107;-61
2022/05/31 08:53:09;;;;;;;3.72;3.42;;;;;;;14.63;95.42;95643.69;5097596;27;20121;-60
2022/05/31 08:58:35;;;;;;;4.30;3.25;;;;;;;15.13;91.94;95641.78;5101776;27;20054;-60
2022/05/31 09:01:03;;;;;;;4.03;3.25;;;;;;;15.66;89.08;95638.53;5095690;27;20562;-60
2022/05/31 09:03:29;;;;;;;4.03;2.75;;;;;;;15.92;87.41;95640.09;5112691;27;20092;-60
2022/05/31 09:06:05;;;;;;;5.05;2.85;;;;;;;16.07;85.23;95632.97;5095626;27;20055;-61
2022/05/31 09:08:44;;;;;;;2.58;2.47;;;;;;;15.91;84.88;95625.97;5097383;27;20436;-61
2022/05/31 09:11:23;;;;;;;7.57;2.58;;;;;;;15.57;86.03;95633.28;5097274;27;20028;-60
2022/05/31 09:14:17;;;;;;;2.75;2.30;;;;;;;15.94;84.98;95622.94;5095100;27;20059;-61
2022/05/31 09:17:10;;;;;;;2.47;2.28;;;;;;;15.98;84.64;95624.25;5099201;27;20046;-60
2022/05/31 09:19:43;;;;;;;7.93;2.50;;;;;;;16.30;84.33;95618.84;5101330;27;20024;-61
2022/05/31 09:22:09;;;;;;;2.22;2.03;;;;;;;16.68;82.79;95620.66;5110890;27;20027;-61
2022/05/31 09:24:41;;;;;;;7.88;2.20;;;;;;;16.85;80.08;95630.09;5097525;27;20016;-61
2022/05/31 09:27:13;;;;;;;2.28;1.70;;;;;;;17.33;79.23;95631.56;5103424;27;20043;-61
2022/05/31 09:29:50;;;;;;;5.85;2.15;;;;;;;17.88;76.20;95631.19;5108233;27;20019;-61
2022/05/31 09:32:52;;;;;;;5.15;1.88;;;;;;;17.50;74.23;95639.34;5095621;27;20028;-61
2022/05/31 09:35:40;;;;;;;5.28;1.75;;;;;;;16.95;75.76;95634.34;5096158;27;20035;-61
2022/05/31 09:38:15;;;;;;;5.18;2.15;;;;;;;16.59;78.00;95634.03;5099688;27;20158;-60
2022/05/31 09:40:49;;;;;;;1.98;1.70;;;;;;;16.19;79.47;95641.34;5099183;27;20122;-61
2022/05/31 09:43:19;;;;;;;1.90;1.80;;;;;;;15.97;80.52;95637.72;5106368;27;20023;-61
2022/05/31 09:45:56;;;;;;;3.78;1.90;;;;;;;15.89;79.98;95639.41;5105760;27;20517;-60
2022/05/31 09:48:22;;;;;;;6.13;2.08;;;;;;;15.60;81.24;95645.38;5096583;27;20024;-60
2022/05/31 09:50:47;;;;;;;1.90;1.73;;;;;;;15.38;84.78;95646.97;5098404;27;20490;-61
2022/05/31 09:59:26;;;;;;;2.42;2.10;;;;;;;15.15;85.37;95661.00;5054399;28;20498;-61
2022/05/31 10:01:52;;;;;;;2.58;1.65;;;;;;;15.13;83.01;95655.84;5101563;27;20405;-60
2022/05/31 10:04:21;;;;;;;3.05;2.05;;;;;;;15.28;82.96;95657.78;5099622;27;20034;-61
2022/05/31 10:06:57;;;;;;;3.22;2.60;;;;;;;15.55;83.14;95650.38;5098778;27;20528;-61
2022/05/31 10:09:45;;;;;;;3.80;2.58;;;;;;;15.31;85.50;95657.44;5100776;27;20036;-61
2022/05/31 10:12:13;;;;;;;5.22;2.60;;;;;;;15.16;86.46;95655.53;5099815;27;20449;-61
2022/05/31 10:14:42;;;;;;;4.07;2.30;;;;;;;15.11;85.79;95654.38;5103287;27;20024;-61
2022/05/31 10:17:36;;;;;;;3.17;2.33;;;;;;;14.90;88.39;95647.81;5114023;27;20054;-60
2022/05/31 10:20:12;;;;;;;3.78;2.28;;;;;;;14.80;89.88;95648.00;5105416;27;20652;-60
2022/05/31 10:22:48;;;;;;;2.20;2.05;;;;;;;14.84;87.11;95651.97;5102192;27;20050;-61
2022/05/31 10:25:19;;;;;;;2.10;1.90;;;;;;;14.83;85.92;95645.00;5103124;27;20020;-61
2022/05/31 10:27:45;;;;;;;2.25;2.05;;;;;;;15.00;86.44;95642.31;5102088;27;20129;-60
2022/05/31 10:30:20;;;;;;;5.00;3.80;;;;;;;15.13;86.04;95644.44;5109853;27;20023;-60
2022/05/31 10:32:56;;;;;;;4.90;2.38;;;;;;;15.23;85.78;95641.56;5100621;27;20023;-60
2022/05/31 10:35:31;;;;;;;6.88;4.80;;;;;;;15.40;85.29;95642.31;5098803;27;20494;-60
2022/05/31 10:38:04;;;;;;;5.80;5.10;;;;;;;15.73;84.96;95636.84;5107262;27;20106;-60
2022/05/31 10:40:55;;;;;;;5.30;3.05;;;;;;;16.13;84.78;95634.91;5107154;27;20289;-61
2022/05/31 10:43:46;;;;;;;6.32;2.78;;;;;;;16.37;83.89;95632.25;5098969;27;20034;-60
2022/05/31 10:46:19;;;;;;;3.75;3.45;;;;;;;16.57;83.89;95624.56;5077317;27;20560;-60
2022/05/31 10:48:49;;;;;;;3.10;2.80;;;;;;;16.72;81.30;95635.25;5101384;27;20072;-60
2022/05/31 10:51:33;;;;;;;4.82;2.40;;;;;;;16.89;81.03;95631.38;5104858;27;20106;-60
2022/05/31 10:54:08;;;;;;;5.40;2.72;;;;;;;17.13;79.87;95626.84;5084596;28;20069;-61
2022/05/31 10:56:52;;;;;;;3.92;2.28;;;;;;;17.20;79.29;95631.44;5100573;27;20400;-61
2022/05/31 10:59:41;;;;;;;3.80;2.65;;;;;;;17.38;78.38;95623.03;5094912;28;20107;-61
2022/05/31 11:02:29;;;;;;;2.85;2.30;;;;;;;17.26;78.79;95612.88;5103585;27;20019;-60
2022/05/31 11:05:01;;;;;;;3.08;2.22;;;;;;;17.34;78.35;95611.94;5109715;27;20061;-60
2022/05/31 11:07:39;;;;;;;3.28;2.45;;;;;;;17.47;77.51;95612.09;5099770;27;20039;-60
2022/05/31 11:13:38;;;;;;;1.98;1.88;;;;;;;17.69;74.75;95585.50;5109002;27;20092;-60
2022/05/31 11:16:14;;;;;;;3.60;1.85;;;;;;;17.67;74.76;95579.56;5101982;28;20027;-61
2022/05/31 11:19:06;;;;;;;1.88;1.75;;;;;;;17.62;74.94;95589.97;5101048;27;20114;-60
2022/05/31 11:21:58;;;;;;;3.83;1.73;;;;;;;17.19;75.21;95590.69;5112053;27;20099;-61
2022/05/31 11:24:26;;;;;;;2.28;1.52;;;;;;;16.94;75.42;95590.97;5104300;27;20466;-60
2022/05/31 11:27:04;;;;;;;1.70;1.60;;;;;;;16.80;76.35;95589.13;5097986;27;20023;-61
2022/05/31 11:29:49;;;;;;;1.95;1.75;;;;;;;16.72;77.16;95592.72;5102640;27;20032;-61
2022/05/31 11:32:37;;;;;;;4.45;1.85;;;;;;;16.78;76.38;95585.81;5095040;28;20035;-61
2022/05/31 11:35:25;;;;;;;3.17;1.92;;;;;;;17.21;75.19;95586.00;5104097;27;20020;-60
2022/05/31 11:37:56;;;;;;;2.17;1.90;;;;;;;17.75;73.39;95579.44;5103112;27;20086;-60
2022/05/31 11:40:33;;;;;;;2.03;1.92;;;;;;;18.09;72.33;95578.94;5110329;28;20031;-60
2022/05/31 11:43:17;;;;;;;1.98;1.70;;;;;;;18.55;70.04;95575.81;5105357;27;20028;-60
2022/05/31 11:46:09;;;;;;;2.22;2.10;;;;;;;18.66;70.51;95573.59;5107284;27;20469;-60
2022/05/31 11:48:50;;;;;;;3.65;1.73;;;;;;;18.51;70.02;95576.38;5108007;27;20045;-60
2022/05/31 11:51:44;;;;;;;1.98;1.80;;;;;;;18.08;68.98;95571.97;5110991;28;20410;-60
2022/05/31 11:54:21;;;;;;;3.55;1.48;;;;;;;17.65;68.80;95573.59;5099091;28;20045;-60
2022/05/31 11:57:01;;;;;;;2.15;1.70;;;;;;;17.66;68.62;95566.44;5105245;28;20046;-60
2022/05/31 11:59:27;;;;;;;1.58;1.48;;;;;;;18.00;67.88;95565.72;5101395;28;20047;-61
2022/05/31 12:02:14;;;;;;;2.30;1.52;;;;;;;18.02;67.84;95561.09;5095079;28;20486;-61
2022/05/31 12:04:44;;;;;;;1.75;1.65;;;;;;;17.90;69.35;95578.53;5109222;28;20058;-60
2022/05/31 12:07:15;;;;;;;2.20;2.05;;;;;;;17.82;68.90;95578.69;5096173;28;20495;-61
2022/05/31 12:09:47;;;;;;;3.10;2.15;;;;;;;17.79;69.35;95574.56;5104787;28;20042;-60
2022/05/31 12:12:18;;;;;;;2.13;1.48;;;;;;;17.75;68.01;95587.41;5110458;27;20046;-60